sensor_id;sensor_type;location;lat;lon;timestamp;P1;durP1;ratioP1;P2;durP2;ratioP2
5876;SDS011;2964;42.144;24.730;2023-02-01T00:00:03;6.37;;;5.97;;
5876;SDS011;2964;42.144;24.730;2023-02-01T00:02:31;6.03;;;5.73;;
5876;SDS011;2964;42.144;24.730;2023-02-01T00:04:57;6.17;;;5.87;;
5876;SDS011;2964;42.144;24.730;2023-02-01T00:07:24;6.40;;;6.10;;
5876;SDS011;2964;42.144;24.730;2023-02-01T00:09:51;6.97;;;6.47;;
5876;SDS011;2964;42.144;24.730;2023-02-01T00:12:17;5.97;;;5.67;;
5876;SDS011;2964;42.144;24.730;2023-02-01T00:14:45;5.97;;;5.67;;
5876;SDS011;2964;42.144;24.730;2023-02-01T00:17:13;5.77;;;5.37;;
5876;SDS011;2964;42.144;24.730;2023-02-01T00:19:40;6.30;;;5.97;;
5876;SDS011;2964;42.144;24.730;2023-02-01T00:22:06;6.10;;;5.70;;
5876;SDS011;2964;42.144;24.730;2023-02-01T00:24:33;6.50;;;6.00;;
5876;SDS011;2964;42.144;24.730;2023-02-01T00:27:00;5.80;;;5.50;;
5876;SDS011;2964;42.144;24.730;2023-02-01T00:29:26;5.97;;;5.67;;
5876;SDS011;2964;42.144;24.730;2023-02-01T00:31:54;5.83;;;5.53;;
5876;SDS011;2964;42.144;24.730;2023-02-01T00:34:21;6.70;;;6.20;;
5876;SDS011;2964;42.144;24.730;2023-02-01T00:36:48;5.87;;;5.47;;
5876;SDS011;2964;42.144;24.730;2023-02-01T00:39:15;6.53;;;6.13;;
5876;SDS011;2964;42.144;24.730;2023-02-01T00:41:42;6.27;;;5.87;;
5876;SDS011;2964;42.144;24.730;2023-02-01T00:44:09;5.53;;;5.33;;
5876;SDS011;2964;42.144;24.730;2023-02-01T00:46:36;6.27;;;5.87;;
5876;SDS011;2964;42.144;24.730;2023-02-01T00:49:04;6.13;;;5.83;;
5876;SDS011;2964;42.144;24.730;2023-02-01T00:51:32;6.50;;;6.10;;
5876;SDS011;2964;42.144;24.730;2023-02-01T00:53:58;5.83;;;5.43;;
5876;SDS011;2964;42.144;24.730;2023-02-01T00:56:25;6.20;;;5.80;;
5876;SDS011;2964;42.144;24.730;2023-02-01T00:58:53;6.07;;;5.87;;
5876;SDS011;2964;42.144;24.730;2023-02-01T01:01:21;6.20;;;5.80;;
5876;SDS011;2964;42.144;24.730;2023-02-01T01:03:50;6.07;;;5.67;;
5876;SDS011;2964;42.144;24.730;2023-02-01T01:06:20;5.97;;;5.67;;
5876;SDS011;2964;42.144;24.730;2023-02-01T01:08:50;6.47;;;5.93;;
5876;SDS011;2964;42.144;24.730;2023-02-01T01:11:19;6.13;;;5.83;;
5876;SDS011;2964;42.144;24.730;2023-02-01T01:13:47;6.33;;;5.93;;
5876;SDS011;2964;42.144;24.730;2023-02-01T01:16:15;6.33;;;5.83;;
5876;SDS011;2964;42.144;24.730;2023-02-01T01:18:43;5.83;;;5.43;;
5876;SDS011;2964;42.144;24.730;2023-02-01T01:21:11;5.50;;;5.07;;
5876;SDS011;2964;42.144;24.730;2023-02-01T01:23:40;6.30;;;6.00;;
5876;SDS011;2964;42.144;24.730;2023-02-01T01:26:07;6.07;;;5.57;;
5876;SDS011;2964;42.144;24.730;2023-02-01T01:28:35;6.30;;;5.87;;
5876;SDS011;2964;42.144;24.730;2023-02-01T01:31:02;5.73;;;5.30;;
5876;SDS011;2964;42.144;24.730;2023-02-01T01:33:29;6.33;;;5.77;;
5876;SDS011;2964;42.144;24.730;2023-02-01T01:35:56;5.97;;;5.67;;
5876;SDS011;2964;42.144;24.730;2023-02-01T01:38:22;5.90;;;5.60;;
5876;SDS011;2964;42.144;24.730;2023-02-01T01:40:50;5.97;;;5.60;;
5876;SDS011;2964;42.144;24.730;2023-02-01T01:43:18;5.10;;;4.90;;
5876;SDS011;2964;42.144;24.730;2023-02-01T01:45:47;5.50;;;5.20;;
5876;SDS011;2964;42.144;24.730;2023-02-01T01:48:15;5.97;;;5.57;;
5876;SDS011;2964;42.144;24.730;2023-02-01T01:50:45;5.67;;;5.40;;
5876;SDS011;2964;42.144;24.730;2023-02-01T01:53:18;5.17;;;4.97;;
5876;SDS011;2964;42.144;24.730;2023-02-01T01:55:48;5.80;;;5.50;;
5876;SDS011;2964;42.144;24.730;2023-02-01T01:58:20;5.23;;;5.03;;
5876;SDS011;2964;42.144;24.730;2023-02-01T02:00:50;5.50;;;5.20;;
5876;SDS011;2964;42.144;24.730;2023-02-01T02:03:18;6.07;;;5.77;;
5876;SDS011;2964;42.144;24.730;2023-02-01T02:05:46;6.37;;;6.00;;
5876;SDS011;2964;42.144;24.730;2023-02-01T02:08:15;5.63;;;5.33;;
5876;SDS011;2964;42.144;24.730;2023-02-01T02:10:45;6.23;;;5.83;;
5876;SDS011;2964;42.144;24.730;2023-02-01T02:13:29;6.37;;;6.07;;
5876;SDS011;2964;42.144;24.730;2023-02-01T02:18:57;5.53;;;5.23;;
5876;SDS011;2964;42.144;24.730;2023-02-01T02:21:46;6.17;;;5.87;;
5876;SDS011;2964;42.144;24.730;2023-02-01T02:24:34;5.80;;;5.50;;
5876;SDS011;2964;42.144;24.730;2023-02-01T02:27:18;5.93;;;5.57;;
5876;SDS011;2964;42.144;24.730;2023-02-01T02:36:04;5.43;;;5.23;;
5876;SDS011;2964;42.144;24.730;2023-02-01T02:38:38;6.57;;;6.17;;
5876;SDS011;2964;42.144;24.730;2023-02-01T02:41:13;5.73;;;5.50;;
5876;SDS011;2964;42.144;24.730;2023-02-01T02:44:07;5.37;;;5.17;;
5876;SDS011;2964;42.144;24.730;2023-02-01T02:46:54;5.60;;;5.20;;
5876;SDS011;2964;42.144;24.730;2023-02-01T02:49:51;5.93;;;5.63;;
5876;SDS011;2964;42.144;24.730;2023-02-01T02:52:35;6.23;;;5.80;;
5876;SDS011;2964;42.144;24.730;2023-02-01T02:55:22;6.00;;;5.60;;
5876;SDS011;2964;42.144;24.730;2023-02-01T02:57:51;5.70;;;5.40;;
5876;SDS011;2964;42.144;24.730;2023-02-01T03:00:36;6.33;;;5.93;;
5876;SDS011;2964;42.144;24.730;2023-02-01T03:03:23;6.83;;;6.23;;
5876;SDS011;2964;42.144;24.730;2023-02-01T03:06:10;5.80;;;5.50;;
5876;SDS011;2964;42.144;24.730;2023-02-01T03:08:41;6.27;;;5.90;;
5876;SDS011;2964;42.144;24.730;2023-02-01T03:11:10;5.77;;;5.47;;
5876;SDS011;2964;42.144;24.730;2023-02-01T03:13:40;5.63;;;5.43;;
5876;SDS011;2964;42.144;24.730;2023-02-01T03:16:10;6.10;;;5.83;;
5876;SDS011;2964;42.144;24.730;2023-02-01T03:18:42;6.10;;;5.80;;
5876;SDS011;2964;42.144;24.730;2023-02-01T03:21:17;6.03;;;5.73;;
5876;SDS011;2964;42.144;24.730;2023-02-01T03:23:48;6.20;;;5.23;;
5876;SDS011;2964;42.144;24.730;2023-02-01T03:26:17;6.60;;;6.13;;
5876;SDS011;2964;42.144;24.730;2023-02-01T03:28:48;6.43;;;6.03;;
5876;SDS011;2964;42.144;24.730;2023-02-01T03:31:20;6.67;;;6.37;;
5876;SDS011;2964;42.144;24.730;2023-02-01T03:33:48;6.27;;;5.97;;
5876;SDS011;2964;42.144;24.730;2023-02-01T03:36:18;7.33;;;6.57;;
5876;SDS011;2964;42.144;24.730;2023-02-01T03:38:50;7.00;;;6.60;;
5876;SDS011;2964;42.144;24.730;2023-02-01T03:41:23;7.27;;;6.53;;
5876;SDS011;2964;42.144;24.730;2023-02-01T03:43:58;6.47;;;5.97;;
5876;SDS011;2964;42.144;24.730;2023-02-01T03:46:30;6.30;;;6.00;;
5876;SDS011;2964;42.144;24.730;2023-02-01T03:49:02;6.87;;;6.40;;
5876;SDS011;2964;42.144;24.730;2023-02-01T03:51:33;6.67;;;6.37;;
5876;SDS011;2964;42.144;24.730;2023-02-01T03:54:03;7.93;;;7.23;;
5876;SDS011;2964;42.144;24.730;2023-02-01T03:56:32;7.90;;;7.20;;
5876;SDS011;2964;42.144;24.730;2023-02-01T03:59:04;7.23;;;6.83;;
5876;SDS011;2964;42.144;24.730;2023-02-01T04:01:30;7.97;;;7.53;;
5876;SDS011;2964;42.144;24.730;2023-02-01T04:03:57;8.40;;;7.70;;
5876;SDS011;2964;42.144;24.730;2023-02-01T04:06:24;7.30;;;6.87;;
5876;SDS011;2964;42.144;24.730;2023-02-01T04:08:53;17.07;;;7.57;;
5876;SDS011;2964;42.144;24.730;2023-02-01T04:11:19;7.43;;;7.03;;
5876;SDS011;2964;42.144;24.730;2023-02-01T04:13:46;7.57;;;7.13;;
5876;SDS011;2964;42.144;24.730;2023-02-01T04:16:13;8.03;;;7.50;;
5876;SDS011;2964;42.144;24.730;2023-02-01T04:18:40;7.87;;;7.07;;
5876;SDS011;2964;42.144;24.730;2023-02-01T04:21:06;7.47;;;7.07;;
5876;SDS011;2964;42.144;24.730;2023-02-01T04:23:33;8.20;;;7.60;;
5876;SDS011;2964;42.144;24.730;2023-02-01T04:26:03;8.33;;;7.63;;
5876;SDS011;2964;42.144;24.730;2023-02-01T04:28:30;8.13;;;7.60;;
5876;SDS011;2964;42.144;24.730;2023-02-01T04:30:57;7.50;;;7.07;;
5876;SDS011;2964;42.144;24.730;2023-02-01T04:33:24;7.83;;;7.23;;
5876;SDS011;2964;42.144;24.730;2023-02-01T04:35:51;8.17;;;7.50;;
5876;SDS011;2964;42.144;24.730;2023-02-01T04:38:17;8.40;;;7.90;;
5876;SDS011;2964;42.144;24.730;2023-02-01T04:40:46;8.97;;;8.27;;
5876;SDS011;2964;42.144;24.730;2023-02-01T04:43:15;8.67;;;7.87;;
5876;SDS011;2964;42.144;24.730;2023-02-01T04:45:41;8.73;;;8.23;;
5876;SDS011;2964;42.144;24.730;2023-02-01T04:48:13;8.37;;;7.67;;
5876;SDS011;2964;42.144;24.730;2023-02-01T04:50:39;8.80;;;7.93;;
5876;SDS011;2964;42.144;24.730;2023-02-01T04:53:06;8.83;;;8.23;;
5876;SDS011;2964;42.144;24.730;2023-02-01T04:55:33;8.40;;;7.80;;
5876;SDS011;2964;42.144;24.730;2023-02-01T04:57:59;7.40;;;6.97;;
5876;SDS011;2964;42.144;24.730;2023-02-01T05:00:27;8.00;;;7.20;;
5876;SDS011;2964;42.144;24.730;2023-02-01T05:02:54;7.77;;;7.27;;
5876;SDS011;2964;42.144;24.730;2023-02-01T05:05:20;7.70;;;7.27;;
5876;SDS011;2964;42.144;24.730;2023-02-01T05:07:47;8.03;;;7.43;;
5876;SDS011;2964;42.144;24.730;2023-02-01T05:10:14;8.03;;;7.53;;
5876;SDS011;2964;42.144;24.730;2023-02-01T05:12:42;7.43;;;6.93;;
5876;SDS011;2964;42.144;24.730;2023-02-01T05:15:28;7.43;;;6.90;;
5876;SDS011;2964;42.144;24.730;2023-02-01T05:17:55;8.63;;;7.13;;
5876;SDS011;2964;42.144;24.730;2023-02-01T05:20:21;7.27;;;6.87;;
5876;SDS011;2964;42.144;24.730;2023-02-01T05:22:48;7.37;;;6.53;;
5876;SDS011;2964;42.144;24.730;2023-02-01T05:25:15;6.60;;;6.20;;
5876;SDS011;2964;42.144;24.730;2023-02-01T05:27:42;7.27;;;6.67;;
5876;SDS011;2964;42.144;24.730;2023-02-01T05:30:09;5.97;;;5.47;;
5876;SDS011;2964;42.144;24.730;2023-02-01T05:32:38;8.27;;;6.93;;
5876;SDS011;2964;42.144;24.730;2023-02-01T05:35:05;7.07;;;6.67;;
5876;SDS011;2964;42.144;24.730;2023-02-01T05:37:32;7.43;;;6.73;;
5876;SDS011;2964;42.144;24.730;2023-02-01T05:39:59;8.60;;;7.90;;
5876;SDS011;2964;42.144;24.730;2023-02-01T05:42:26;8.10;;;7.37;;
5876;SDS011;2964;42.144;24.730;2023-02-01T05:44:52;8.93;;;8.03;;
5876;SDS011;2964;42.144;24.730;2023-02-01T05:47:19;7.10;;;6.60;;
5876;SDS011;2964;42.144;24.730;2023-02-01T05:49:47;7.53;;;7.03;;
5876;SDS011;2964;42.144;24.730;2023-02-01T05:52:14;7.90;;;7.10;;
5876;SDS011;2964;42.144;24.730;2023-02-01T05:54:44;9.60;;;7.03;;
5876;SDS011;2964;42.144;24.730;2023-02-01T05:57:12;6.57;;;6.00;;
5876;SDS011;2964;42.144;24.730;2023-02-01T05:59:39;10.23;;;6.43;;
5876;SDS011;2964;42.144;24.730;2023-02-01T06:02:12;6.57;;;6.17;;
5876;SDS011;2964;42.144;24.730;2023-02-01T06:04:39;8.90;;;7.10;;
5876;SDS011;2964;42.144;24.730;2023-02-01T06:07:08;8.00;;;7.30;;
5876;SDS011;2964;42.144;24.730;2023-02-01T06:09:35;6.60;;;5.93;;
5876;SDS011;2964;42.144;24.730;2023-02-01T06:12:02;6.37;;;5.90;;
5876;SDS011;2964;42.144;24.730;2023-02-01T06:14:29;6.90;;;6.50;;
5876;SDS011;2964;42.144;24.730;2023-02-01T06:16:56;6.30;;;6.00;;
5876;SDS011;2964;42.144;24.730;2023-02-01T06:19:23;8.97;;;6.37;;
5876;SDS011;2964;42.144;24.730;2023-02-01T06:21:51;6.70;;;6.40;;
5876;SDS011;2964;42.144;24.730;2023-02-01T06:24:19;6.10;;;5.77;;
5876;SDS011;2964;42.144;24.730;2023-02-01T06:26:46;7.13;;;6.43;;
5876;SDS011;2964;42.144;24.730;2023-02-01T06:29:13;8.97;;;5.70;;
5876;SDS011;2964;42.144;24.730;2023-02-01T06:31:39;7.50;;;6.40;;
5876;SDS011;2964;42.144;24.730;2023-02-01T06:34:07;7.03;;;6.60;;
5876;SDS011;2964;42.144;24.730;2023-02-01T06:36:34;7.17;;;5.97;;
5876;SDS011;2964;42.144;24.730;2023-02-01T06:39:01;6.67;;;6.27;;
5876;SDS011;2964;42.144;24.730;2023-02-01T06:41:29;6.63;;;6.20;;
5876;SDS011;2964;42.144;24.730;2023-02-01T06:43:55;6.00;;;5.63;;
5876;SDS011;2964;42.144;24.730;2023-02-01T06:46:22;6.27;;;5.73;;
5876;SDS011;2964;42.144;24.730;2023-02-01T06:48:49;6.37;;;6.07;;
5876;SDS011;2964;42.144;24.730;2023-02-01T06:51:18;5.80;;;5.43;;
5876;SDS011;2964;42.144;24.730;2023-02-01T06:53:46;6.27;;;5.87;;
5876;SDS011;2964;42.144;24.730;2023-02-01T06:56:13;6.77;;;6.40;;
5876;SDS011;2964;42.144;24.730;2023-02-01T06:58:41;14.70;;;5.83;;
5876;SDS011;2964;42.144;24.730;2023-02-01T07:01:08;6.23;;;5.83;;
5876;SDS011;2964;42.144;24.730;2023-02-01T07:03:36;6.00;;;5.70;;
5876;SDS011;2964;42.144;24.730;2023-02-01T07:06:03;7.27;;;6.67;;
5876;SDS011;2964;42.144;24.730;2023-02-01T07:08:31;7.20;;;6.60;;
5876;SDS011;2964;42.144;24.730;2023-02-01T07:11:00;7.77;;;6.90;;
5876;SDS011;2964;42.144;24.730;2023-02-01T07:13:28;7.70;;;6.93;;
5876;SDS011;2964;42.144;24.730;2023-02-01T07:15:58;8.27;;;7.63;;
5876;SDS011;2964;42.144;24.730;2023-02-01T07:18:26;7.90;;;7.20;;
5876;SDS011;2964;42.144;24.730;2023-02-01T07:20:54;10.10;;;8.10;;
5876;SDS011;2964;42.144;24.730;2023-02-01T07:23:22;8.43;;;7.60;;
5876;SDS011;2964;42.144;24.730;2023-02-01T07:25:52;8.47;;;7.73;;
5876;SDS011;2964;42.144;24.730;2023-02-01T07:28:19;8.40;;;7.40;;
5876;SDS011;2964;42.144;24.730;2023-02-01T07:30:46;7.83;;;7.20;;
5876;SDS011;2964;42.144;24.730;2023-02-01T07:33:17;8.20;;;7.60;;
5876;SDS011;2964;42.144;24.730;2023-02-01T07:35:44;11.43;;;7.50;;
5876;SDS011;2964;42.144;24.730;2023-02-01T07:38:11;10.00;;;6.50;;
5876;SDS011;2964;42.144;24.730;2023-02-01T07:40:38;8.00;;;6.77;;
5876;SDS011;2964;42.144;24.730;2023-02-01T07:43:05;8.37;;;7.00;;
5876;SDS011;2964;42.144;24.730;2023-02-01T07:45:33;6.80;;;6.37;;
5876;SDS011;2964;42.144;24.730;2023-02-01T07:48:00;7.63;;;7.03;;
5876;SDS011;2964;42.144;24.730;2023-02-01T07:50:28;8.50;;;7.07;;
5876;SDS011;2964;42.144;24.730;2023-02-01T07:52:55;6.43;;;5.83;;
5876;SDS011;2964;42.144;24.730;2023-02-01T07:55:21;7.40;;;6.67;;
5876;SDS011;2964;42.144;24.730;2023-02-01T07:57:49;7.20;;;6.50;;
5876;SDS011;2964;42.144;24.730;2023-02-01T08:00:16;8.00;;;7.40;;
5876;SDS011;2964;42.144;24.730;2023-02-01T08:03:02;8.77;;;6.80;;
5876;SDS011;2964;42.144;24.730;2023-02-01T08:05:31;7.47;;;6.97;;
5876;SDS011;2964;42.144;24.730;2023-02-01T08:07:58;12.87;;;6.13;;
5876;SDS011;2964;42.144;24.730;2023-02-01T08:10:25;8.43;;;6.73;;
5876;SDS011;2964;42.144;24.730;2023-02-01T08:12:51;7.03;;;6.37;;
5876;SDS011;2964;42.144;24.730;2023-02-01T08:15:24;8.63;;;6.77;;
5876;SDS011;2964;42.144;24.730;2023-02-01T08:17:51;7.03;;;6.43;;
5876;SDS011;2964;42.144;24.730;2023-02-01T08:20:19;6.07;;;5.60;;
5876;SDS011;2964;42.144;24.730;2023-02-01T08:22:48;9.33;;;6.83;;
5876;SDS011;2964;42.144;24.730;2023-02-01T08:25:15;6.87;;;6.37;;
5876;SDS011;2964;42.144;24.730;2023-02-01T08:27:42;9.43;;;6.70;;
5876;SDS011;2964;42.144;24.730;2023-02-01T08:30:09;7.63;;;6.93;;
5876;SDS011;2964;42.144;24.730;2023-02-01T08:32:36;6.93;;;6.43;;
5876;SDS011;2964;42.144;24.730;2023-02-01T08:35:03;8.33;;;6.97;;
5876;SDS011;2964;42.144;24.730;2023-02-01T08:37:30;6.03;;;5.63;;
5876;SDS011;2964;42.144;24.730;2023-02-01T08:39:58;9.30;;;6.23;;
5876;SDS011;2964;42.144;24.730;2023-02-01T08:42:25;6.57;;;6.17;;
5876;SDS011;2964;42.144;24.730;2023-02-01T08:45:09;6.33;;;5.77;;
5876;SDS011;2964;42.144;24.730;2023-02-01T08:47:36;5.80;;;5.57;;
5876;SDS011;2964;42.144;24.730;2023-02-01T08:50:03;7.83;;;7.30;;
5876;SDS011;2964;42.144;24.730;2023-02-01T08:52:30;7.13;;;6.60;;
5876;SDS011;2964;42.144;24.730;2023-02-01T08:54:57;10.37;;;6.63;;
5876;SDS011;2964;42.144;24.730;2023-02-01T08:57:25;6.93;;;6.43;;
5876;SDS011;2964;42.144;24.730;2023-02-01T08:59:52;6.57;;;6.00;;
5876;SDS011;2964;42.144;24.730;2023-02-01T09:02:18;6.23;;;5.77;;
5876;SDS011;2964;42.144;24.730;2023-02-01T09:04:45;7.27;;;6.13;;
5876;SDS011;2964;42.144;24.730;2023-02-01T09:07:12;8.10;;;7.33;;
5876;SDS011;2964;42.144;24.730;2023-02-01T09:09:39;11.40;;;7.57;;
5876;SDS011;2964;42.144;24.730;2023-02-01T09:12:07;7.30;;;6.70;;
5876;SDS011;2964;42.144;24.730;2023-02-01T09:14:33;6.83;;;6.37;;
5876;SDS011;2964;42.144;24.730;2023-02-01T09:17:00;8.37;;;7.63;;
5876;SDS011;2964;42.144;24.730;2023-02-01T09:19:27;7.90;;;7.30;;
5876;SDS011;2964;42.144;24.730;2023-02-01T09:21:54;6.70;;;6.07;;
5876;SDS011;2964;42.144;24.730;2023-02-01T09:24:21;6.43;;;5.87;;
5876;SDS011;2964;42.144;24.730;2023-02-01T09:26:47;14.27;;;6.63;;
5876;SDS011;2964;42.144;24.730;2023-02-01T09:29:15;8.80;;;6.07;;
5876;SDS011;2964;42.144;24.730;2023-02-01T09:31:42;6.93;;;6.53;;
5876;SDS011;2964;42.144;24.730;2023-02-01T09:34:09;7.80;;;6.90;;
5876;SDS011;2964;42.144;24.730;2023-02-01T09:36:35;9.57;;;6.33;;
5876;SDS011;2964;42.144;24.730;2023-02-01T09:39:02;9.03;;;7.27;;
5876;SDS011;2964;42.144;24.730;2023-02-01T09:41:32;8.23;;;7.63;;
5876;SDS011;2964;42.144;24.730;2023-02-01T09:44:09;8.57;;;6.50;;
5876;SDS011;2964;42.144;24.730;2023-02-01T09:46:48;6.73;;;6.00;;
5876;SDS011;2964;42.144;24.730;2023-02-01T09:49:22;9.77;;;6.73;;
5876;SDS011;2964;42.144;24.730;2023-02-01T09:51:54;6.53;;;6.13;;
5876;SDS011;2964;42.144;24.730;2023-02-01T09:54:22;5.90;;;5.10;;
5876;SDS011;2964;42.144;24.730;2023-02-01T09:56:53;6.50;;;5.90;;
5876;SDS011;2964;42.144;24.730;2023-02-01T09:59:29;6.30;;;5.23;;
5876;SDS011;2964;42.144;24.730;2023-02-01T10:02:01;16.57;;;5.67;;
5876;SDS011;2964;42.144;24.730;2023-02-01T10:04:32;5.33;;;5.00;;
5876;SDS011;2964;42.144;24.730;2023-02-01T10:07:02;5.57;;;5.20;;
5876;SDS011;2964;42.144;24.730;2023-02-01T10:09:44;5.67;;;5.17;;
5876;SDS011;2964;42.144;24.730;2023-02-01T10:15:18;5.23;;;4.80;;
5876;SDS011;2964;42.144;24.730;2023-02-01T10:18:00;5.40;;;5.07;;
5876;SDS011;2964;42.144;24.730;2023-02-01T10:20:41;22.37;;;7.90;;
5876;SDS011;2964;42.144;24.730;2023-02-01T10:23:23;6.00;;;5.50;;
5876;SDS011;2964;42.144;24.730;2023-02-01T10:26:03;5.60;;;5.17;;
5876;SDS011;2964;42.144;24.730;2023-02-01T10:28:34;6.47;;;5.97;;
5876;SDS011;2964;42.144;24.730;2023-02-01T10:31:05;6.90;;;6.37;;
5876;SDS011;2964;42.144;24.730;2023-02-01T10:33:36;8.03;;;6.30;;
5876;SDS011;2964;42.144;24.730;2023-02-01T10:36:10;7.80;;;5.50;;
5876;SDS011;2964;42.144;24.730;2023-02-01T10:38:43;6.60;;;6.23;;
5876;SDS011;2964;42.144;24.730;2023-02-01T10:41:12;6.50;;;6.10;;
5876;SDS011;2964;42.144;24.730;2023-02-01T10:43:41;6.20;;;5.80;;
5876;SDS011;2964;42.144;24.730;2023-02-01T10:46:10;6.93;;;5.40;;
5876;SDS011;2964;42.144;24.730;2023-02-01T10:48:37;7.43;;;5.47;;
5876;SDS011;2964;42.144;24.730;2023-02-01T10:51:06;16.93;;;5.90;;
5876;SDS011;2964;42.144;24.730;2023-02-01T10:53:40;5.30;;;4.90;;
5876;SDS011;2964;42.144;24.730;2023-02-01T10:56:13;5.33;;;5.07;;
5876;SDS011;2964;42.144;24.730;2023-02-01T10:58:43;5.43;;;5.23;;
5876;SDS011;2964;42.144;24.730;2023-02-01T11:01:15;5.07;;;4.67;;
5876;SDS011;2964;42.144;24.730;2023-02-01T11:03:44;5.93;;;5.43;;
5876;SDS011;2964;42.144;24.730;2023-02-01T11:06:19;5.43;;;5.03;;
5876;SDS011;2964;42.144;24.730;2023-02-01T11:08:52;5.63;;;5.33;;
5876;SDS011;2964;42.144;24.730;2023-02-01T11:11:20;7.83;;;5.97;;
5876;SDS011;2964;42.144;24.730;2023-02-01T11:13:51;5.27;;;5.07;;
5876;SDS011;2964;42.144;24.730;2023-02-01T11:16:23;5.60;;;5.30;;
5876;SDS011;2964;42.144;24.730;2023-02-01T11:18:55;6.10;;;5.57;;
5876;SDS011;2964;42.144;24.730;2023-02-01T11:21:24;6.93;;;5.63;;
5876;SDS011;2964;42.144;24.730;2023-02-01T11:23:51;5.70;;;5.40;;
5876;SDS011;2964;42.144;24.730;2023-02-01T11:26:20;5.40;;;5.00;;
5876;SDS011;2964;42.144;24.730;2023-02-01T11:28:51;5.73;;;5.23;;
5876;SDS011;2964;42.144;24.730;2023-02-01T11:31:21;5.50;;;5.00;;
5876;SDS011;2964;42.144;24.730;2023-02-01T11:33:50;6.60;;;5.47;;
5876;SDS011;2964;42.144;24.730;2023-02-01T11:36:21;6.77;;;4.93;;
5876;SDS011;2964;42.144;24.730;2023-02-01T11:38:52;7.17;;;5.20;;
5876;SDS011;2964;42.144;24.730;2023-02-01T11:41:21;5.60;;;5.40;;
5876;SDS011;2964;42.144;24.730;2023-02-01T11:43:51;5.80;;;5.40;;
5876;SDS011;2964;42.144;24.730;2023-02-01T11:46:20;5.20;;;4.90;;
5876;SDS011;2964;42.144;24.730;2023-02-01T11:48:54;6.77;;;4.87;;
5876;SDS011;2964;42.144;24.730;2023-02-01T11:51:34;5.00;;;4.80;;
5876;SDS011;2964;42.144;24.730;2023-02-01T11:54:15;5.03;;;4.70;;
5876;SDS011;2964;42.144;24.730;2023-02-01T11:56:56;5.10;;;4.67;;
5876;SDS011;2964;42.144;24.730;2023-02-01T12:02:38;5.73;;;5.33;;
5876;SDS011;2964;42.144;24.730;2023-02-01T12:05:24;7.10;;;5.27;;
5876;SDS011;2964;42.144;24.730;2023-02-01T12:08:00;4.70;;;4.50;;
5876;SDS011;2964;42.144;24.730;2023-02-01T12:10:39;5.43;;;5.23;;
5876;SDS011;2964;42.144;24.730;2023-02-01T12:13:21;5.30;;;4.83;;
5876;SDS011;2964;42.144;24.730;2023-02-01T12:16:00;5.03;;;4.83;;
5876;SDS011;2964;42.144;24.730;2023-02-01T12:18:38;4.73;;;4.53;;
5876;SDS011;2964;42.144;24.730;2023-02-01T12:21:22;4.60;;;4.40;;
5876;SDS011;2964;42.144;24.730;2023-02-01T12:24:02;4.83;;;4.63;;
5876;SDS011;2964;42.144;24.730;2023-02-01T12:26:50;5.17;;;4.87;;
5876;SDS011;2964;42.144;24.730;2023-02-01T12:29:34;4.83;;;4.63;;
5876;SDS011;2964;42.144;24.730;2023-02-01T12:32:25;6.37;;;5.70;;
5876;SDS011;2964;42.144;24.730;2023-02-01T12:35:13;5.10;;;4.50;;
5876;SDS011;2964;42.144;24.730;2023-02-01T12:38:03;4.87;;;4.70;;
5876;SDS011;2964;42.144;24.730;2023-02-01T12:40:43;5.50;;;5.10;;
5876;SDS011;2964;42.144;24.730;2023-02-01T12:43:22;5.60;;;5.30;;
5876;SDS011;2964;42.144;24.730;2023-02-01T12:45:55;4.57;;;4.27;;
5876;SDS011;2964;42.144;24.730;2023-02-01T12:48:27;5.10;;;4.80;;
5876;SDS011;2964;42.144;24.730;2023-02-01T12:51:01;5.97;;;4.87;;
5876;SDS011;2964;42.144;24.730;2023-02-01T12:53:32;4.80;;;4.60;;
5876;SDS011;2964;42.144;24.730;2023-02-01T12:56:10;5.00;;;4.70;;
5876;SDS011;2964;42.144;24.730;2023-02-01T12:58:42;5.23;;;5.03;;
5876;SDS011;2964;42.144;24.730;2023-02-01T13:01:14;4.77;;;4.47;;
5876;SDS011;2964;42.144;24.730;2023-02-01T13:03:50;5.40;;;4.90;;
5876;SDS011;2964;42.144;24.730;2023-02-01T13:06:24;5.23;;;4.87;;
5876;SDS011;2964;42.144;24.730;2023-02-01T13:08:56;4.90;;;4.60;;
5876;SDS011;2964;42.144;24.730;2023-02-01T13:11:30;5.87;;;4.60;;
5876;SDS011;2964;42.144;24.730;2023-02-01T13:14:01;5.10;;;4.70;;
5876;SDS011;2964;42.144;24.730;2023-02-01T13:16:32;5.40;;;4.90;;
5876;SDS011;2964;42.144;24.730;2023-02-01T13:19:03;5.60;;;5.30;;
5876;SDS011;2964;42.144;24.730;2023-02-01T13:21:39;6.03;;;5.57;;
5876;SDS011;2964;42.144;24.730;2023-02-01T13:24:26;12.43;;;4.70;;
5876;SDS011;2964;42.144;24.730;2023-02-01T13:26:58;5.70;;;5.30;;
5876;SDS011;2964;42.144;24.730;2023-02-01T13:29:25;9.37;;;5.33;;
5876;SDS011;2964;42.144;24.730;2023-02-01T13:31:58;7.93;;;5.10;;
5876;SDS011;2964;42.144;24.730;2023-02-01T13:34:55;4.97;;;4.67;;
5876;SDS011;2964;42.144;24.730;2023-02-01T13:37:43;5.77;;;5.47;;
5876;SDS011;2964;42.144;24.730;2023-02-01T13:40:29;5.23;;;5.00;;
5876;SDS011;2964;42.144;24.730;2023-02-01T13:43:04;5.67;;;5.37;;
5876;SDS011;2964;42.144;24.730;2023-02-01T13:45:36;6.03;;;5.67;;
5876;SDS011;2964;42.144;24.730;2023-02-01T13:48:15;5.47;;;5.10;;
5876;SDS011;2964;42.144;24.730;2023-02-01T13:50:49;5.63;;;5.43;;
5876;SDS011;2964;42.144;24.730;2023-02-01T13:53:21;5.63;;;4.60;;
5876;SDS011;2964;42.144;24.730;2023-02-01T13:55:55;4.83;;;4.63;;
5876;SDS011;2964;42.144;24.730;2023-02-01T13:58:29;5.30;;;4.90;;
5876;SDS011;2964;42.144;24.730;2023-02-01T14:03:57;4.70;;;4.50;;
5876;SDS011;2964;42.144;24.730;2023-02-01T14:06:35;6.00;;;5.63;;
5876;SDS011;2964;42.144;24.730;2023-02-01T14:17:51;9.60;;;4.90;;
5876;SDS011;2964;42.144;24.730;2023-02-01T14:23:24;4.97;;;4.67;;
5876;SDS011;2964;42.144;24.730;2023-02-01T14:26:04;5.97;;;5.67;;
5876;SDS011;2964;42.144;24.730;2023-02-01T14:28:42;6.20;;;5.20;;
5876;SDS011;2964;42.144;24.730;2023-02-01T14:31:16;5.10;;;4.77;;
5876;SDS011;2964;42.144;24.730;2023-02-01T14:33:58;4.87;;;4.37;;
5876;SDS011;2964;42.144;24.730;2023-02-01T14:36:35;5.83;;;5.47;;
5876;SDS011;2964;42.144;24.730;2023-02-01T14:39:16;6.17;;;5.50;;
5876;SDS011;2964;42.144;24.730;2023-02-01T14:41:51;6.00;;;5.53;;
5876;SDS011;2964;42.144;24.730;2023-02-01T14:44:25;5.20;;;5.00;;
5876;SDS011;2964;42.144;24.730;2023-02-01T14:47:07;8.57;;;4.90;;
5876;SDS011;2964;42.144;24.730;2023-02-01T14:49:54;5.00;;;4.70;;
5876;SDS011;2964;42.144;24.730;2023-02-01T14:52:28;4.43;;;4.07;;
5876;SDS011;2964;42.144;24.730;2023-02-01T14:55:00;4.77;;;4.57;;
5876;SDS011;2964;42.144;24.730;2023-02-01T14:57:31;5.07;;;4.67;;
5876;SDS011;2964;42.144;24.730;2023-02-01T15:00:05;4.80;;;4.37;;
5876;SDS011;2964;42.144;24.730;2023-02-01T15:02:35;5.77;;;5.37;;
5876;SDS011;2964;42.144;24.730;2023-02-01T15:05:12;7.43;;;5.60;;
5876;SDS011;2964;42.144;24.730;2023-02-01T15:07:49;7.00;;;6.57;;
5876;SDS011;2964;42.144;24.730;2023-02-01T15:10:16;6.30;;;5.70;;
5876;SDS011;2964;42.144;24.730;2023-02-01T15:12:45;5.67;;;5.27;;
5876;SDS011;2964;42.144;24.730;2023-02-01T15:15:16;4.77;;;4.57;;
5876;SDS011;2964;42.144;24.730;2023-02-01T15:17:52;9.13;;;5.73;;
5876;SDS011;2964;42.144;24.730;2023-02-01T15:20:21;5.73;;;5.33;;
5876;SDS011;2964;42.144;24.730;2023-02-01T15:22:52;6.57;;;6.07;;
5876;SDS011;2964;42.144;24.730;2023-02-01T15:25:21;5.77;;;5.30;;
5876;SDS011;2964;42.144;24.730;2023-02-01T15:27:51;7.83;;;5.40;;
5876;SDS011;2964;42.144;24.730;2023-02-01T15:30:18;5.93;;;5.43;;
5876;SDS011;2964;42.144;24.730;2023-02-01T15:32:47;5.37;;;5.00;;
5876;SDS011;2964;42.144;24.730;2023-02-01T15:35:34;5.67;;;5.27;;
5876;SDS011;2964;42.144;24.730;2023-02-01T15:38:21;6.63;;;5.50;;
5876;SDS011;2964;42.144;24.730;2023-02-01T15:41:05;4.57;;;4.37;;
5876;SDS011;2964;42.144;24.730;2023-02-01T15:43:36;11.70;;;5.27;;
5876;SDS011;2964;42.144;24.730;2023-02-01T15:46:07;4.77;;;4.50;;
5876;SDS011;2964;42.144;24.730;2023-02-01T15:48:37;5.10;;;4.80;;
5876;SDS011;2964;42.144;24.730;2023-02-01T15:51:10;5.57;;;5.07;;
5876;SDS011;2964;42.144;24.730;2023-02-01T15:53:39;5.30;;;4.90;;